sensor_id;sensor_type;location;lat;lon;timestamp;temperature;humidity
5041;DHT22;2539;52.568;13.364;2023-08-12T00:00:56;17.60;99.90
5041;DHT22;2539;52.568;13.364;2023-08-12T00:03:23;17.50;99.90
5041;DHT22;2539;52.568;13.364;2023-08-12T00:05:49;17.50;99.90
5041;DHT22;2539;52.568;13.364;2023-08-12T00:08:16;17.50;99.90
5041;DHT22;2539;52.568;13.364;2023-08-12T00:10:42;17.40;99.90
5041;DHT22;2539;52.568;13.364;2023-08-12T00:13:09;17.40;99.90
5041;DHT22;2539;52.568;13.364;2023-08-12T00:15:35;17.40;99.90
5041;DHT22;2539;52.568;13.364;2023-08-12T00:18:02;17.40;99.90
5041;DHT22;2539;52.568;13.364;2023-08-12T00:20:37;17.50;99.90
5041;DHT22;2539;52.568;13.364;2023-08-12T00:23:04;17.50;99.90
5041;DHT22;2539;52.568;13.364;2023-08-12T00:25:30;17.50;99.90
5041;DHT22;2539;52.568;13.364;2023-08-12T00:27:57;17.50;99.90
5041;DHT22;2539;52.568;13.364;2023-08-12T00:30:23;17.50;99.90
5041;DHT22;2539;52.568;13.364;2023-08-12T00:32:49;17.50;99.90
5041;DHT22;2539;52.568;13.364;2023-08-12T00:35:16;17.60;99.90
5041;DHT22;2539;52.568;13.364;2023-08-12T00:37:42;17.60;99.90
5041;DHT22;2539;52.568;13.364;2023-08-12T00:40:09;17.60;99.90
5041;DHT22;2539;52.568;13.364;2023-08-12T00:42:35;17.60;99.90
5041;DHT22;2539;52.568;13.364;2023-08-12T00:45:01;17.70;99.90
5041;DHT22;2539;52.568;13.364;2023-08-12T00:47:29;17.70;99.90
5041;DHT22;2539;52.568;13.364;2023-08-12T00:49:56;17.70;99.90
5041;DHT22;2539;52.568;13.364;2023-08-12T00:52:24;17.70;99.90
5041;DHT22;2539;52.568;13.364;2023-08-12T00:54:50;17.70;99.90
5041;DHT22;2539;52.568;13.364;2023-08-12T00:57:17;17.70;99.90
5041;DHT22;2539;52.568;13.364;2023-08-12T00:59:44;17.70;99.90
5041;DHT22;2539;52.568;13.364;2023-08-12T01:02:11;17.60;99.90
5041;DHT22;2539;52.568;13.364;2023-08-12T01:04:38;17.60;99.90
5041;DHT22;2539;52.568;13.364;2023-08-12T01:07:04;17.60;99.90
5041;DHT22;2539;52.568;13.364;2023-08-12T01:09:31;17.60;99.90
5041;DHT22;2539;52.568;13.364;2023-08-12T01:12:09;17.60;99.90
5041;DHT22;2539;52.568;13.364;2023-08-12T01:14:56;17.60;99.90
5041;DHT22;2539;52.568;13.364;2023-08-12T01:17:23;17.60;99.90
5041;DHT22;2539;52.568;13.364;2023-08-12T01:19:51;17.60;99.90
5041;DHT22;2539;52.568;13.364;2023-08-12T01:22:20;17.60;99.90
5041;DHT22;2539;52.568;13.364;2023-08-12T01:24:47;17.60;99.90
5041;DHT22;2539;52.568;13.364;2023-08-12T01:27:13;17.60;99.90
5041;DHT22;2539;52.568;13.364;2023-08-12T01:29:43;17.60;99.90
5041;DHT22;2539;52.568;13.364;2023-08-12T01:32:42;17.50;99.90
5041;DHT22;2539;52.568;13.364;2023-08-12T01:35:26;17.60;99.90
5041;DHT22;2539;52.568;13.364;2023-08-12T01:37:54;17.50;99.90
5041;DHT22;2539;52.568;13.364;2023-08-12T01:40:22;17.50;99.90
5041;DHT22;2539;52.568;13.364;2023-08-12T01:42:48;17.50;99.90
5041;DHT22;2539;52.568;13.364;2023-08-12T01:45:15;17.50;99.90
5041;DHT22;2539;52.568;13.364;2023-08-12T01:47:44;17.40;99.90
5041;DHT22;2539;52.568;13.364;2023-08-12T01:50:11;17.40;99.90
5041;DHT22;2539;52.568;13.364;2023-08-12T01:52:37;17.40;99.90
5041;DHT22;2539;52.568;13.364;2023-08-12T01:55:04;17.40;99.90
5041;DHT22;2539;52.568;13.364;2023-08-12T01:57:30;17.30;99.90
5041;DHT22;2539;52.568;13.364;2023-08-12T01:59:56;17.40;99.90
5041;DHT22;2539;52.568;13.364;2023-08-12T02:02:22;17.40;99.90
5041;DHT22;2539;52.568;13.364;2023-08-12T02:04:49;17.40;99.90
5041;DHT22;2539;52.568;13.364;2023-08-12T02:07:15;17.40;99.90
5041;DHT22;2539;52.568;13.364;2023-08-12T02:09:41;17.30;99.90
5041;DHT22;2539;52.568;13.364;2023-08-12T02:12:07;17.30;99.90
5041;DHT22;2539;52.568;13.364;2023-08-12T02:14:33;17.40;99.90
5041;DHT22;2539;52.568;13.364;2023-08-12T02:17:00;17.50;99.90
5041;DHT22;2539;52.568;13.364;2023-08-12T02:19:26;17.50;99.90
5041;DHT22;2539;52.568;13.364;2023-08-12T02:21:53;17.50;99.90
5041;DHT22;2539;52.568;13.364;2023-08-12T02:24:19;17.60;99.90
5041;DHT22;2539;52.568;13.364;2023-08-12T02:26:45;17.60;99.90
5041;DHT22;2539;52.568;13.364;2023-08-12T02:29:11;17.60;99.90
5041;DHT22;2539;52.568;13.364;2023-08-12T02:31:37;17.70;99.90
5041;DHT22;2539;52.568;13.364;2023-08-12T02:34:04;17.70;99.90
5041;DHT22;2539;52.568;13.364;2023-08-12T02:36:30;17.70;99.90
5041;DHT22;2539;52.568;13.364;2023-08-12T02:38:56;17.70;99.90
5041;DHT22;2539;52.568;13.364;2023-08-12T02:41:22;17.70;99.90
5041;DHT22;2539;52.568;13.364;2023-08-12T02:43:49;17.70;99.90
5041;DHT22;2539;52.568;13.364;2023-08-12T02:46:15;17.70;99.90
5041;DHT22;2539;52.568;13.364;2023-08-12T02:48:42;17.70;99.90
5041;DHT22;2539;52.568;13.364;2023-08-12T02:51:08;17.70;99.90
5041;DHT22;2539;52.568;13.364;2023-08-12T02:53:35;17.70;99.90
5041;DHT22;2539;52.568;13.364;2023-08-12T02:56:02;17.70;99.90
5041;DHT22;2539;52.568;13.364;2023-08-12T02:58:28;17.70;99.90
5041;DHT22;2539;52.568;13.364;2023-08-12T03:00:55;17.70;99.90
5041;DHT22;2539;52.568;13.364;2023-08-12T03:03:21;17.70;99.90
5041;DHT22;2539;52.568;13.364;2023-08-12T03:05:48;17.80;99.90
5041;DHT22;2539;52.568;13.364;2023-08-12T03:08:14;17.60;99.90
5041;DHT22;2539;52.568;13.364;2023-08-12T03:10:41;17.60;99.90
5041;DHT22;2539;52.568;13.364;2023-08-12T03:13:08;17.60;99.90
5041;DHT22;2539;52.568;13.364;2023-08-12T03:15:34;17.50;99.90
5041;DHT22;2539;52.568;13.364;2023-08-12T03:18:01;17.50;99.90
5041;DHT22;2539;52.568;13.364;2023-08-12T03:20:27;17.50;99.90
5041;DHT22;2539;52.568;13.364;2023-08-12T03:22:53;17.50;99.90
5041;DHT22;2539;52.568;13.364;2023-08-12T03:25:19;17.50;99.90
5041;DHT22;2539;52.568;13.364;2023-08-12T03:27:46;17.50;99.90
5041;DHT22;2539;52.568;13.364;2023-08-12T03:30:12;17.40;99.90
5041;DHT22;2539;52.568;13.364;2023-08-12T03:32:38;17.40;99.90
5041;DHT22;2539;52.568;13.364;2023-08-12T03:35:05;17.40;99.90
5041;DHT22;2539;52.568;13.364;2023-08-12T03:37:31;17.50;99.90
5041;DHT22;2539;52.568;13.364;2023-08-12T03:39:57;17.50;99.90
5041;DHT22;2539;52.568;13.364;2023-08-12T03:42:23;17.40;99.90
5041;DHT22;2539;52.568;13.364;2023-08-12T03:44:50;17.40;99.90
5041;DHT22;2539;52.568;13.364;2023-08-12T03:47:16;17.40;99.90
5041;DHT22;2539;52.568;13.364;2023-08-12T03:49:47;17.50;99.90
5041;DHT22;2539;52.568;13.364;2023-08-12T03:52:14;17.40;99.90
5041;DHT22;2539;52.568;13.364;2023-08-12T03:54:40;17.40;99.90
5041;DHT22;2539;52.568;13.364;2023-08-12T03:57:06;17.40;99.90
5041;DHT22;2539;52.568;13.364;2023-08-12T03:59:32;17.40;99.90
5041;DHT22;2539;52.568;13.364;2023-08-12T04:02:00;17.50;99.90
5041;DHT22;2539;52.568;13.364;2023-08-12T04:04:26;17.50;99.90
5041;DHT22;2539;52.568;13.364;2023-08-12T04:06:52;17.50;99.90
5041;DHT22;2539;52.568;13.364;2023-08-12T04:09:19;17.50;99.90
5041;DHT22;2539;52.568;13.364;2023-08-12T04:11:46;17.50;99.90
5041;DHT22;2539;52.568;13.364;2023-08-12T04:14:13;17.50;99.90
5041;DHT22;2539;52.568;13.364;2023-08-12T04:16:39;17.60;99.90
5041;DHT22;2539;52.568;13.364;2023-08-12T04:19:06;17.70;99.90
5041;DHT22;2539;52.568;13.364;2023-08-12T04:21:32;17.70;99.90
5041;DHT22;2539;52.568;13.364;2023-08-12T04:23:58;17.70;99.90
5041;DHT22;2539;52.568;13.364;2023-08-12T04:26:24;17.80;99.90
5041;DHT22;2539;52.568;13.364;2023-08-12T04:28:51;17.70;99.90
5041;DHT22;2539;52.568;13.364;2023-08-12T04:31:17;17.80;99.90
5041;DHT22;2539;52.568;13.364;2023-08-12T04:33:43;17.80;99.90
5041;DHT22;2539;52.568;13.364;2023-08-12T04:36:09;17.80;99.90
5041;DHT22;2539;52.568;13.364;2023-08-12T04:38:36;17.90;99.90
5041;DHT22;2539;52.568;13.364;2023-08-12T04:41:02;17.90;99.90
5041;DHT22;2539;52.568;13.364;2023-08-12T04:43:28;17.90;99.90
5041;DHT22;2539;52.568;13.364;2023-08-12T04:45:54;17.90;99.90
5041;DHT22;2539;52.568;13.364;2023-08-12T04:48:20;18.00;99.90
5041;DHT22;2539;52.568;13.364;2023-08-12T04:50:47;18.00;99.90
5041;DHT22;2539;52.568;13.364;2023-08-12T04:53:13;18.20;99.90
5041;DHT22;2539;52.568;13.364;2023-08-12T04:55:39;18.20;99.90
5041;DHT22;2539;52.568;13.364;2023-08-12T04:58:05;18.40;99.90
5041;DHT22;2539;52.568;13.364;2023-08-12T05:00:31;18.50;99.90
5041;DHT22;2539;52.568;13.364;2023-08-12T05:02:58;18.70;99.90
5041;DHT22;2539;52.568;13.364;2023-08-12T05:05:26;18.90;99.90
5041;DHT22;2539;52.568;13.364;2023-08-12T05:07:52;19.10;99.90
5041;DHT22;2539;52.568;13.364;2023-08-12T05:10:18;19.30;99.90
5041;DHT22;2539;52.568;13.364;2023-08-12T05:12:45;19.50;99.90
5041;DHT22;2539;52.568;13.364;2023-08-12T05:15:12;19.70;99.90
5041;DHT22;2539;52.568;13.364;2023-08-12T05:17:38;19.80;99.90
5041;DHT22;2539;52.568;13.364;2023-08-12T05:20:05;20.00;99.90
5041;DHT22;2539;52.568;13.364;2023-08-12T05:22:31;20.10;99.90
5041;DHT22;2539;52.568;13.364;2023-08-12T05:24:58;20.30;99.90
5041;DHT22;2539;52.568;13.364;2023-08-12T05:27:24;20.40;99.90
5041;DHT22;2539;52.568;13.364;2023-08-12T05:29:50;20.50;99.90
5041;DHT22;2539;52.568;13.364;2023-08-12T05:32:16;20.70;99.90
5041;DHT22;2539;52.568;13.364;2023-08-12T05:34:42;20.80;99.90
5041;DHT22;2539;52.568;13.364;2023-08-12T05:37:09;20.80;99.90
5041;DHT22;2539;52.568;13.364;2023-08-12T05:39:35;20.90;99.90
5041;DHT22;2539;52.568;13.364;2023-08-12T05:42:01;20.90;99.90
5041;DHT22;2539;52.568;13.364;2023-08-12T05:44:27;20.80;99.90
5041;DHT22;2539;52.568;13.364;2023-08-12T05:46:54;20.80;99.90
5041;DHT22;2539;52.568;13.364;2023-08-12T05:49:20;20.70;99.90
5041;DHT22;2539;52.568;13.364;2023-08-12T05:51:46;20.60;99.90
5041;DHT22;2539;52.568;13.364;2023-08-12T05:54:12;20.60;99.90
5041;DHT22;2539;52.568;13.364;2023-08-12T05:56:39;20.60;99.90
5041;DHT22;2539;52.568;13.364;2023-08-12T05:59:05;20.50;99.90
5041;DHT22;2539;52.568;13.364;2023-08-12T06:01:31;20.50;99.90
5041;DHT22;2539;52.568;13.364;2023-08-12T06:03:58;20.60;99.90
5041;DHT22;2539;52.568;13.364;2023-08-12T06:06:24;20.60;99.90
5041;DHT22;2539;52.568;13.364;2023-08-12T06:08:50;20.70;99.90
5041;DHT22;2539;52.568;13.364;2023-08-12T06:11:16;20.80;99.90
5041;DHT22;2539;52.568;13.364;2023-08-12T06:13:41;21.00;99.90
5041;DHT22;2539;52.568;13.364;2023-08-12T06:16:07;21.10;99.90
5041;DHT22;2539;52.568;13.364;2023-08-12T06:18:34;21.20;99.90
5041;DHT22;2539;52.568;13.364;2023-08-12T06:21:00;21.30;99.90
5041;DHT22;2539;52.568;13.364;2023-08-12T06:23:26;21.40;99.90
5041;DHT22;2539;52.568;13.364;2023-08-12T06:25:53;21.60;99.90
5041;DHT22;2539;52.568;13.364;2023-08-12T06:28:18;21.70;99.90
5041;DHT22;2539;52.568;13.364;2023-08-12T06:30:47;21.70;99.90
5041;DHT22;2539;52.568;13.364;2023-08-12T06:33:14;21.70;99.90
5041;DHT22;2539;52.568;13.364;2023-08-12T06:35:41;21.80;99.90
5041;DHT22;2539;52.568;13.364;2023-08-12T06:38:07;21.80;99.90
5041;DHT22;2539;52.568;13.364;2023-08-12T06:40:37;21.80;99.90
5041;DHT22;2539;52.568;13.364;2023-08-12T06:43:04;21.80;99.90
5041;DHT22;2539;52.568;13.364;2023-08-12T06:45:30;21.70;99.90
5041;DHT22;2539;52.568;13.364;2023-08-12T06:47:56;21.60;99.90
5041;DHT22;2539;52.568;13.364;2023-08-12T06:50:22;21.50;99.90
5041;DHT22;2539;52.568;13.364;2023-08-12T06:52:49;21.60;99.90
5041;DHT22;2539;52.568;13.364;2023-08-12T06:55:15;21.60;99.90
5041;DHT22;2539;52.568;13.364;2023-08-12T06:57:41;21.60;99.90
5041;DHT22;2539;52.568;13.364;2023-08-12T07:00:08;21.70;99.90
5041;DHT22;2539;52.568;13.364;2023-08-12T07:02:34;22.00;99.90
5041;DHT22;2539;52.568;13.364;2023-08-12T07:05:01;22.30;99.90
5041;DHT22;2539;52.568;13.364;2023-08-12T07:07:27;22.50;99.90
5041;DHT22;2539;52.568;13.364;2023-08-12T07:09:53;22.70;99.90
5041;DHT22;2539;52.568;13.364;2023-08-12T07:12:20;22.70;99.90
5041;DHT22;2539;52.568;13.364;2023-08-12T07:14:46;22.80;99.90
5041;DHT22;2539;52.568;13.364;2023-08-12T07:17:12;23.00;99.90
5041;DHT22;2539;52.568;13.364;2023-08-12T07:19:38;23.00;99.90
5041;DHT22;2539;52.568;13.364;2023-08-12T07:22:05;22.90;99.90
5041;DHT22;2539;52.568;13.364;2023-08-12T07:24:31;23.00;99.90
5041;DHT22;2539;52.568;13.364;2023-08-12T07:26:57;22.90;99.90
5041;DHT22;2539;52.568;13.364;2023-08-12T07:29:23;23.00;99.90
5041;DHT22;2539;52.568;13.364;2023-08-12T07:31:52;23.00;99.90
5041;DHT22;2539;52.568;13.364;2023-08-12T07:34:18;23.20;99.90
5041;DHT22;2539;52.568;13.364;2023-08-12T07:36:44;23.50;99.90
5041;DHT22;2539;52.568;13.364;2023-08-12T07:39:11;23.70;99.90
5041;DHT22;2539;52.568;13.364;2023-08-12T07:41:37;24.00;99.90
5041;DHT22;2539;52.568;13.364;2023-08-12T07:44:03;24.30;99.90
5041;DHT22;2539;52.568;13.364;2023-08-12T07:46:29;24.50;99.90
5041;DHT22;2539;52.568;13.364;2023-08-12T07:48:56;24.50;99.90
5041;DHT22;2539;52.568;13.364;2023-08-12T07:51:22;24.60;99.90
5041;DHT22;2539;52.568;13.364;2023-08-12T07:53:49;24.70;99.90
5041;DHT22;2539;52.568;13.364;2023-08-12T07:56:15;24.70;99.90
5041;DHT22;2539;52.568;13.364;2023-08-12T07:58:41;24.70;99.90
5041;DHT22;2539;52.568;13.364;2023-08-12T08:01:07;24.80;99.90
5041;DHT22;2539;52.568;13.364;2023-08-12T08:03:35;24.70;99.90
5041;DHT22;2539;52.568;13.364;2023-08-12T08:06:01;24.50;99.90
5041;DHT22;2539;52.568;13.364;2023-08-12T08:08:28;24.20;99.90
5041;DHT22;2539;52.568;13.364;2023-08-12T08:10:53;24.00;99.90
5041;DHT22;2539;52.568;13.364;2023-08-12T08:13:19;23.80;99.90
5041;DHT22;2539;52.568;13.364;2023-08-12T08:15:45;23.70;99.90
5041;DHT22;2539;52.568;13.364;2023-08-12T08:18:11;23.60;99.90
5041;DHT22;2539;52.568;13.364;2023-08-12T08:20:37;23.60;99.90
5041;DHT22;2539;52.568;13.364;2023-08-12T08:23:03;23.50;99.90
5041;DHT22;2539;52.568;13.364;2023-08-12T08:25:29;23.50;99.90
5041;DHT22;2539;52.568;13.364;2023-08-12T08:27:55;23.40;99.90
5041;DHT22;2539;52.568;13.364;2023-08-12T08:30:20;23.30;99.90
5041;DHT22;2539;52.568;13.364;2023-08-12T08:32:48;23.30;99.90
5041;DHT22;2539;52.568;13.364;2023-08-12T08:35:14;23.20;99.90
5041;DHT22;2539;52.568;13.364;2023-08-12T08:37:40;23.00;99.90
5041;DHT22;2539;52.568;13.364;2023-08-12T08:40:07;22.90;99.90
5041;DHT22;2539;52.568;13.364;2023-08-12T08:42:34;22.80;99.90
5041;DHT22;2539;52.568;13.364;2023-08-12T08:45:01;22.80;99.90
5041;DHT22;2539;52.568;13.364;2023-08-12T08:47:28;22.80;99.90
5041;DHT22;2539;52.568;13.364;2023-08-12T08:49:55;22.80;99.90
5041;DHT22;2539;52.568;13.364;2023-08-12T08:52:23;22.80;99.90
5041;DHT22;2539;52.568;13.364;2023-08-12T08:54:50;23.00;99.90
5041;DHT22;2539;52.568;13.364;2023-08-12T08:57:18;23.00;99.90
5041;DHT22;2539;52.568;13.364;2023-08-12T08:59:45;23.10;99.90
5041;DHT22;2539;52.568;13.364;2023-08-12T09:02:16;23.20;99.90
5041;DHT22;2539;52.568;13.364;2023-08-12T09:04:44;23.20;99.90
5041;DHT22;2539;52.568;13.364;2023-08-12T09:07:11;23.20;99.90
5041;DHT22;2539;52.568;13.364;2023-08-12T09:09:39;23.20;99.90
5041;DHT22;2539;52.568;13.364;2023-08-12T09:12:08;23.20;99.90
5041;DHT22;2539;52.568;13.364;2023-08-12T09:14:35;23.30;99.90
5041;DHT22;2539;52.568;13.364;2023-08-12T09:17:02;23.50;99.90
5041;DHT22;2539;52.568;13.364;2023-08-12T09:19:28;23.90;99.90
5041;DHT22;2539;52.568;13.364;2023-08-12T09:21:54;24.10;99.90
5041;DHT22;2539;52.568;13.364;2023-08-12T09:24:25;24.20;99.90
5041;DHT22;2539;52.568;13.364;2023-08-12T09:26:52;24.40;99.90
5041;DHT22;2539;52.568;13.364;2023-08-12T09:29:22;24.50;99.90
5041;DHT22;2539;52.568;13.364;2023-08-12T09:31:49;24.50;99.90
5041;DHT22;2539;52.568;13.364;2023-08-12T09:34:17;24.60;99.90
5041;DHT22;2539;52.568;13.364;2023-08-12T09:36:44;24.60;99.90
5041;DHT22;2539;52.568;13.364;2023-08-12T09:39:10;24.80;99.90
5041;DHT22;2539;52.568;13.364;2023-08-12T09:41:37;24.80;99.90
5041;DHT22;2539;52.568;13.364;2023-08-12T09:44:05;24.70;99.90
5041;DHT22;2539;52.568;13.364;2023-08-12T09:46:35;24.60;99.90
5041;DHT22;2539;52.568;13.364;2023-08-12T09:49:01;24.60;99.90
5041;DHT22;2539;52.568;13.364;2023-08-12T09:51:34;24.70;99.90
5041;DHT22;2539;52.568;13.364;2023-08-12T09:54:01;24.80;99.90
5041;DHT22;2539;52.568;13.364;2023-08-12T09:56:33;24.90;99.90
5041;DHT22;2539;52.568;13.364;2023-08-12T09:59:05;25.00;99.90
5041;DHT22;2539;52.568;13.364;2023-08-12T10:01:31;25.20;99.90
5041;DHT22;2539;52.568;13.364;2023-08-12T10:03:58;25.30;99.90
5041;DHT22;2539;52.568;13.364;2023-08-12T10:06:24;25.30;99.90
5041;DHT22;2539;52.568;13.364;2023-08-12T10:08:51;25.20;99.90
5041;DHT22;2539;52.568;13.364;2023-08-12T10:11:18;25.10;99.90
5041;DHT22;2539;52.568;13.364;2023-08-12T10:13:45;25.20;99.90
5041;DHT22;2539;52.568;13.364;2023-08-12T10:16:13;25.10;99.90
5041;DHT22;2539;52.568;13.364;2023-08-12T10:18:40;25.00;99.90
5041;DHT22;2539;52.568;13.364;2023-08-12T10:21:10;25.00;99.90
5041;DHT22;2539;52.568;13.364;2023-08-12T10:23:37;25.00;99.90
5041;DHT22;2539;52.568;13.364;2023-08-12T10:26:05;25.00;99.90
5041;DHT22;2539;52.568;13.364;2023-08-12T10:28:33;25.00;99.90
5041;DHT22;2539;52.568;13.364;2023-08-12T10:31:04;25.10;99.90
5041;DHT22;2539;52.568;13.364;2023-08-12T10:33:38;25.30;99.90
5041;DHT22;2539;52.568;13.364;2023-08-12T10:36:05;25.50;99.90
5041;DHT22;2539;52.568;13.364;2023-08-12T10:38:32;25.80;99.90
5041;DHT22;2539;52.568;13.364;2023-08-12T10:41:21;26.10;99.90
5041;DHT22;2539;52.568;13.364;2023-08-12T10:43:54;26.10;99.90
5041;DHT22;2539;52.568;13.364;2023-08-12T10:46:33;26.20;99.90
5041;DHT22;2539;52.568;13.364;2023-08-12T10:49:04;26.20;99.90
5041;DHT22;2539;52.568;13.364;2023-08-12T10:51:53;26.40;99.90
5041;DHT22;2539;52.568;13.364;2023-08-12T10:54:23;26.60;99.90
5041;DHT22;2539;52.568;13.364;2023-08-12T11:02:17;27.40;99.90
5041;DHT22;2539;52.568;13.364;2023-08-12T11:04:47;27.50;99.90
5041;DHT22;2539;52.568;13.364;2023-08-12T11:07:16;27.40;99.90
5041;DHT22;2539;52.568;13.364;2023-08-12T11:09:42;27.30;99.90
5041;DHT22;2539;52.568;13.364;2023-08-12T11:12:09;27.30;99.90
5041;DHT22;2539;52.568;13.364;2023-08-12T11:14:48;27.20;99.90
5041;DHT22;2539;52.568;13.364;2023-08-12T11:17:15;27.00;99.90
5041;DHT22;2539;52.568;13.364;2023-08-12T11:19:42;26.90;99.90
5041;DHT22;2539;52.568;13.364;2023-08-12T11:22:09;26.80;99.90
5041;DHT22;2539;52.568;13.364;2023-08-12T11:24:41;27.00;99.90
5041;DHT22;2539;52.568;13.364;2023-08-12T11:27:10;27.10;99.90
5041;DHT22;2539;52.568;13.364;2023-08-12T11:29:37;27.10;99.90
5041;DHT22;2539;52.568;13.364;2023-08-12T11:32:08;27.20;99.90
5041;DHT22;2539;52.568;13.364;2023-08-12T11:34:34;27.30;99.90
5041;DHT22;2539;52.568;13.364;2023-08-12T11:37:00;27.30;99.90
5041;DHT22;2539;52.568;13.364;2023-08-12T11:39:28;27.30;99.90
5041;DHT22;2539;52.568;13.364;2023-08-12T11:41:55;27.20;99.90
5041;DHT22;2539;52.568;13.364;2023-08-12T11:44:22;27.10;99.90
5041;DHT22;2539;52.568;13.364;2023-08-12T11:46:52;26.90;99.90
5041;DHT22;2539;52.568;13.364;2023-08-12T11:49:18;26.70;99.90
5041;DHT22;2539;52.568;13.364;2023-08-12T11:51:47;26.40;99.90
5041;DHT22;2539;52.568;13.364;2023-08-12T11:54:14;26.10;99.90
5041;DHT22;2539;52.568;13.364;2023-08-12T11:56:40;25.90;99.90
5041;DHT22;2539;52.568;13.364;2023-08-12T11:59:07;25.80;99.90
5041;DHT22;2539;52.568;13.364;2023-08-12T12:01:32;25.60;99.90
5041;DHT22;2539;52.568;13.364;2023-08-12T12:04:02;25.40;99.90
5041;DHT22;2539;52.568;13.364;2023-08-12T12:06:35;25.40;99.90
5041;DHT22;2539;52.568;13.364;2023-08-12T12:09:06;25.50;99.90
5041;DHT22;2539;52.568;13.364;2023-08-12T12:11:33;25.50;99.90
5041;DHT22;2539;52.568;13.364;2023-08-12T12:14:07;25.50;99.90
5041;DHT22;2539;52.568;13.364;2023-08-12T12:16:40;25.70;99.90
5041;DHT22;2539;52.568;13.364;2023-08-12T12:19:21;25.80;99.90
5041;DHT22;2539;52.568;13.364;2023-08-12T12:21:50;25.90;99.90
5041;DHT22;2539;52.568;13.364;2023-08-12T12:24:17;25.90;99.90
5041;DHT22;2539;52.568;13.364;2023-08-12T12:26:45;25.90;99.90
5041;DHT22;2539;52.568;13.364;2023-08-12T12:29:13;25.90;99.90
5041;DHT22;2539;52.568;13.364;2023-08-12T12:31:41;25.70;99.90
5041;DHT22;2539;52.568;13.364;2023-08-12T12:34:08;25.60;99.90
5041;DHT22;2539;52.568;13.364;2023-08-12T12:36:37;25.60;99.90
5041;DHT22;2539;52.568;13.364;2023-08-12T12:39:04;25.30;99.90
5041;DHT22;2539;52.568;13.364;2023-08-12T12:41:30;25.00;99.90
5041;DHT22;2539;52.568;13.364;2023-08-12T12:43:56;25.00;99.90
5041;DHT22;2539;52.568;13.364;2023-08-12T12:46:22;24.90;99.90
5041;DHT22;2539;52.568;13.364;2023-08-12T12:48:47;24.90;99.90
5041;DHT22;2539;52.568;13.364;2023-08-12T12:51:14;25.10;99.90
5041;DHT22;2539;52.568;13.364;2023-08-12T12:53:41;25.30;99.90
5041;DHT22;2539;52.568;13.364;2023-08-12T12:56:07;25.50;99.90
5041;DHT22;2539;52.568;13.364;2023-08-12T12:58:34;25.60;99.90
5041;DHT22;2539;52.568;13.364;2023-08-12T13:01:01;25.90;99.90
5041;DHT22;2539;52.568;13.364;2023-08-12T13:03:27;26.10;99.90
5041;DHT22;2539;52.568;13.364;2023-08-12T13:05:54;26.30;99.90
5041;DHT22;2539;52.568;13.364;2023-08-12T13:08:20;26.70;99.90
5041;DHT22;2539;52.568;13.364;2023-08-12T13:10:46;26.90;99.90
5041;DHT22;2539;52.568;13.364;2023-08-12T13:13:14;27.00;99.90
5041;DHT22;2539;52.568;13.364;2023-08-12T13:15:42;27.10;99.90
5041;DHT22;2539;52.568;13.364;2023-08-12T13:18:09;27.20;99.90
5041;DHT22;2539;52.568;13.364;2023-08-12T13:20:36;27.20;99.90
5041;DHT22;2539;52.568;13.364;2023-08-12T13:23:03;27.30;99.90
5041;DHT22;2539;52.568;13.364;2023-08-12T13:25:32;27.40;99.90
5041;DHT22;2539;52.568;13.364;2023-08-12T13:28:03;27.40;99.90
5041;DHT22;2539;52.568;13.364;2023-08-12T13:30:30;27.50;99.90
5041;DHT22;2539;52.568;13.364;2023-08-12T13:32:56;27.60;99.90
5041;DHT22;2539;52.568;13.364;2023-08-12T13:35:23;27.80;99.90
5041;DHT22;2539;52.568;13.364;2023-08-12T13:37:50;27.80;99.90
5041;DHT22;2539;52.568;13.364;2023-08-12T13:40:17;27.70;99.90
5041;DHT22;2539;52.568;13.364;2023-08-12T13:42:44;27.70;99.90
5041;DHT22;2539;52.568;13.364;2023-08-12T13:45:12;27.60;99.90
5041;DHT22;2539;52.568;13.364;2023-08-12T13:47:39;27.60;99.90
5041;DHT22;2539;52.568;13.364;2023-08-12T13:50:05;27.50;99.90
5041;DHT22;2539;52.568;13.364;2023-08-12T13:52:32;27.60;99.90
5041;DHT22;2539;52.568;13.364;2023-08-12T13:54:58;27.70;99.90
5041;DHT22;2539;52.568;13.364;2023-08-12T13:57:25;28.00;99.90
5041;DHT22;2539;52.568;13.364;2023-08-12T13:59:52;28.20;99.90
5041;DHT22;2539;52.568;13.364;2023-08-12T14:02:17;28.10;99.90
5041;DHT22;2539;52.568;13.364;2023-08-12T14:04:43;28.00;99.90
5041;DHT22;2539;52.568;13.364;2023-08-12T14:07:09;28.00;99.90
5041;DHT22;2539;52.568;13.364;2023-08-12T14:09:34;27.80;99.90
5041;DHT22;2539;52.568;13.364;2023-08-12T14:12:01;27.80;99.90
5041;DHT22;2539;52.568;13.364;2023-08-12T14:14:27;27.70;99.90
5041;DHT22;2539;52.568;13.364;2023-08-12T14:16:54;27.90;99.90
5041;DHT22;2539;52.568;13.364;2023-08-12T14:19:21;27.90;99.90
5041;DHT22;2539;52.568;13.364;2023-08-12T14:21:47;28.10;99.90
5041;DHT22;2539;52.568;13.364;2023-08-12T14:24:13;28.00;99.90
5041;DHT22;2539;52.568;13.364;2023-08-12T14:26:40;28.00;99.90
5041;DHT22;2539;52.568;13.364;2023-08-12T14:29:06;28.20;99.90
5041;DHT22;2539;52.568;13.364;2023-08-12T14:31:33;28.30;99.90
5041;DHT22;2539;52.568;13.364;2023-08-12T14:34:00;28.40;99.90
5041;DHT22;2539;52.568;13.364;2023-08-12T14:36:27;28.30;99.90
5041;DHT22;2539;52.568;13.364;2023-08-12T14:38:54;28.30;99.90
5041;DHT22;2539;52.568;13.364;2023-08-12T14:41:20;28.20;99.90
5041;DHT22;2539;52.568;13.364;2023-08-12T14:43:46;28.10;99.90
5041;DHT22;2539;52.568;13.364;2023-08-12T14:46:12;27.90;99.90
5041;DHT22;2539;52.568;13.364;2023-08-12T14:48:39;27.90;99.90
5041;DHT22;2539;52.568;13.364;2023-08-12T14:51:04;28.00;99.90
5041;DHT22;2539;52.568;13.364;2023-08-12T14:53:30;28.10;99.90
5041;DHT22;2539;52.568;13.364;2023-08-12T14:55:55;28.30;99.90
5041;DHT22;2539;52.568;13.364;2023-08-12T14:58:21;28.50;99.90
5041;DHT22;2539;52.568;13.364;2023-08-12T15:00:47;29.10;99.90
5041;DHT22;2539;52.568;13.364;2023-08-12T15:03:14;30.00;99.90
5041;DHT22;2539;52.568;13.364;2023-08-12T15:05:41;30.30;99.90
5041;DHT22;2539;52.568;13.364;2023-08-12T15:08:07;30.40;99.90
5041;DHT22;2539;52.568;13.364;2023-08-12T15:10:33;30.20;99.90
5041;DHT22;2539;52.568;13.364;2023-08-12T15:13:00;29.70;99.90
5041;DHT22;2539;52.568;13.364;2023-08-12T15:15:27;29.20;99.90
5041;DHT22;2539;52.568;13.364;2023-08-12T15:17:53;28.80;99.90
5041;DHT22;2539;52.568;13.364;2023-08-12T15:20:19;28.40;99.90
5041;DHT22;2539;52.568;13.364;2023-08-12T15:22:45;28.10;99.90
5041;DHT22;2539;52.568;13.364;2023-08-12T15:25:12;27.90;99.90
5041;DHT22;2539;52.568;13.364;2023-08-12T15:27:38;27.70;99.90
5041;DHT22;2539;52.568;13.364;2023-08-12T15:30:05;27.50;99.90
5041;DHT22;2539;52.568;13.364;2023-08-12T15:32:31;27.50;99.90
5041;DHT22;2539;52.568;13.364;2023-08-12T15:34:58;27.50;99.90
5041;DHT22;2539;52.568;13.364;2023-08-12T15:37:24;27.50;99.90
5041;DHT22;2539;52.568;13.364;2023-08-12T15:39:50;27.60;99.90
5041;DHT22;2539;52.568;13.364;2023-08-12T15:42:16;27.60;99.90
5041;DHT22;2539;52.568;13.364;2023-08-12T15:44:42;27.80;99.90
5041;DHT22;2539;52.568;13.364;2023-08-12T15:47:09;28.30;99.90
5041;DHT22;2539;52.568;13.364;2023-08-12T15:49:35;28.80;99.90